Time;durP1;ratioP1;P1;durP2;ratioP2;P2;SDS_P1;SDS_P2;PMS_P1;PMS_P2;Temp;Humidity;BMP_temperature;BMP_pressure;BME280_temperature;BME280_humidity;BME280_pressure;Samples;Min_cycle;Max_cycle;Signal;HPM_P1;HPM_P2
2024/01/25 00:00:41;;;;;;;19.58;2.30;;;;;;;9.15;100.00;100001.25;5067509;28;20016;-56
2024/01/25 00:03:06;;;;;;;14.25;1.83;;;;;;;9.16;100.00;100004.78;5070526;28;20029;-56
2024/01/25 00:05:32;;;;;;;15.25;2.60;;;;;;;9.16;100.00;99992.13;5076595;28;20067;-56
2024/01/25 00:07:57;;;;;;;16.95;2.65;;;;;;;9.13;100.00;99975.41;5067888;28;20032;-56
2024/01/25 00:10:23;;;;;;;25.63;3.03;;;;;;;9.16;100.00;99991.28;5075600;28;20039;-56
2024/01/25 00:12:48;;;;;;;23.73;2.60;;;;;;;9.12;100.00;99984.53;5066522;28;20111;-56
2024/01/25 00:15:14;;;;;;;18.17;2.20;;;;;;;8.95;100.00;99973.66;5066973;28;20066;-56
2024/01/25 00:17:39;;;;;;;15.35;2.45;;;;;;;9.03;100.00;99991.75;5068921;28;20024;-56
2024/01/25 00:20:09;;;;;;;12.48;2.10;;;;;;;8.94;100.00;99977.38;5070415;28;20444;-56
2024/01/25 00:22:34;;;;;;;15.30;2.33;;;;;;;8.97;100.00;99989.72;5074423;28;20440;-56
2024/01/25 00:24:59;;;;;;;16.85;2.67;;;;;;;8.90;100.00;99988.66;5069965;28;20103;-56
2024/01/25 00:29:58;;;;;;;9.55;2.13;;;;;;;8.78;100.00;99985.44;5056948;28;20318;-76
2024/01/25 00:32:23;;;;;;;18.52;2.40;;;;;;;8.77;100.00;99972.94;5058251;28;20092;-76
2024/01/25 00:34:49;;;;;;;15.63;2.55;;;;;;;8.77;100.00;99981.03;5039383;28;20033;-76
2024/01/25 00:37:15;;;;;;;19.23;2.42;;;;;;;8.83;100.00;99983.09;5042614;28;20017;-77
2024/01/25 00:39:40;;;;;;;14.18;1.95;;;;;;;8.76;100.00;99977.50;5040040;28;20020;-77
2024/01/25 00:42:06;;;;;;;28.25;3.08;;;;;;;8.77;100.00;99981.88;5037510;28;20045;-77
2024/01/25 00:44:33;;;;;;;19.92;2.30;;;;;;;8.89;100.00;99960.84;5065197;28;20037;-77
2024/01/25 00:46:59;;;;;;;14.93;2.30;;;;;;;8.89;100.00;99960.84;5038527;28;20380;-77
2024/01/25 00:49:25;;;;;;;17.60;2.92;;;;;;;8.89;100.00;99952.75;5047027;28;20339;-77
2024/01/25 00:51:58;;;;;;;20.67;2.63;;;;;;;8.99;100.00;99955.31;5061344;28;20308;-77
2024/01/25 00:54:23;;;;;;;14.10;2.72;;;;;;;9.11;100.00;99962.06;5053683;28;20033;-77
2024/01/25 00:56:52;;;;;;;18.73;2.70;;;;;;;9.06;100.00;99955.47;5033950;28;20024;-77
2024/01/25 00:59:18;;;;;;;27.45;2.83;;;;;;;9.08;100.00;99937.25;5045492;28;20099;-77
2024/01/25 01:01:46;;;;;;;16.85;2.67;;;;;;;9.17;100.00;99960.59;5038640;28;20029;-77
2024/01/25 01:04:12;;;;;;;19.95;3.00;;;;;;;9.14;100.00;99950.09;5044691;28;20309;-77
2024/01/25 01:06:37;;;;;;;8.75;1.88;;;;;;;9.10;100.00;99932.56;5061039;28;20060;-77
2024/01/25 01:09:03;;;;;;;18.83;2.45;;;;;;;9.19;100.00;99948.56;5062116;28;20025;-78
2024/01/25 01:11:29;;;;;;;18.83;2.35;;;;;;;9.15;100.00;99928.34;5058108;28;20036;-78
2024/01/25 01:13:54;;;;;;;18.73;2.60;;;;;;;9.15;100.00;99943.69;5045043;28;20033;-77
2024/01/25 01:16:20;;;;;;;14.20;2.75;;;;;;;9.12;100.00;99938.63;5044640;28;20029;-77
2024/01/25 01:18:46;;;;;;;18.17;2.40;;;;;;;9.24;100.00;99950.78;5035357;28;20028;-77
2024/01/25 01:21:11;;;;;;;15.43;2.60;;;;;;;9.11;100.00;99945.03;5038282;28;20029;-77
2024/01/25 01:23:36;;;;;;;24.52;2.58;;;;;;;9.12;100.00;99935.94;5059836;28;20025;-79
2024/01/25 01:26:04;;;;;;;18.25;2.08;;;;;;;9.26;100.00;99959.56;5052459;28;20013;-78
2024/01/25 01:28:29;;;;;;;12.43;2.65;;;;;;;9.16;100.00;99953.47;5059749;28;20025;-78
2024/01/25 01:30:54;;;;;;;28.27;2.95;;;;;;;9.08;100.00;99931.88;5040798;28;20024;-78
2024/01/25 01:33:20;;;;;;;22.27;2.60;;;;;;;9.22;100.00;99950.09;5036803;28;20279;-77
2024/01/25 01:35:45;;;;;;;17.60;2.30;;;;;;;9.11;100.00;99924.25;5036000;28;20021;-78
2024/01/25 01:38:11;;;;;;;17.40;2.90;;;;;;;9.30;100.00;99960.06;5043415;28;20024;-78
2024/01/25 01:40:37;;;;;;;17.70;2.45;;;;;;;9.01;100.00;99912.78;5038014;28;20021;-77
2024/01/25 01:43:03;;;;;;;20.23;2.58;;;;;;;9.21;100.00;99951.97;5038937;28;20025;-77
2024/01/25 01:45:28;;;;;;;11.27;1.77;;;;;;;9.08;100.00;99926.47;5041333;28;20212;-77
2024/01/25 01:47:55;;;;;;;18.02;2.42;;;;;;;9.13;100.00;99927.66;5042404;28;20028;-78
2024/01/25 01:50:21;;;;;;;23.70;2.90;;;;;;;9.12;100.00;99914.34;5040476;28;20045;-77
2024/01/25 01:52:47;;;;;;;16.90;2.30;;;;;;;9.19;100.00;99926.13;5038600;28;20021;-77
2024/01/25 01:55:13;;;;;;;22.90;3.38;;;;;;;9.15;100.00;99917.53;5041621;28;20217;-77
2024/01/25 01:57:39;;;;;;;18.25;2.65;;;;;;;9.26;100.00;99937.97;5045891;28;20025;-77
2024/01/25 02:00:09;;;;;;;20.55;2.60;;;;;;;9.17;100.00;99934.41;5034313;28;20017;-77
2024/01/25 02:02:35;;;;;;;20.45;2.60;;;;;;;9.21;100.00;99945.72;5035537;28;20017;-77
2024/01/25 02:05:00;;;;;;;16.13;2.22;;;;;;;9.10;100.00;99908.25;5056431;28;20029;-77
2024/01/25 02:07:26;;;;;;;22.00;2.25;;;;;;;8.85;100.00;99886.59;5045669;28;20021;-76
2024/01/25 02:09:52;;;;;;;16.27;2.30;;;;;;;9.05;100.00;99927.63;5048289;28;20021;-78
2024/01/25 02:12:18;;;;;;;17.38;2.05;;;;;;;9.07;100.00;99922.09;5040363;28;20029;-77
2024/01/25 02:14:43;;;;;;;18.95;2.15;;;;;;;9.03;100.00;99931.50;5044083;28;20151;-77
2024/01/25 02:17:08;;;;;;;19.10;2.55;;;;;;;8.92;100.00;99928.13;5068851;28;20052;-78
2024/01/25 02:19:34;;;;;;;19.98;2.70;;;;;;;8.95;100.00;99938.56;5046013;28;20021;-78
2024/01/25 02:21:59;;;;;;;15.82;2.85;;;;;;;8.88;100.00;99934.88;5041272;28;20028;-78
2024/01/25 02:24:25;;;;;;;17.13;2.45;;;;;;;8.75;100.00;99913.75;5044512;28;20216;-77
2024/01/25 02:26:50;;;;;;;13.48;2.13;;;;;;;8.91;100.00;99947.19;5046378;28;20024;-78
2024/01/25 02:29:15;;;;;;;17.92;2.38;;;;;;;8.89;100.00;99949.22;5042695;28;20029;-78
2024/01/25 02:31:40;;;;;;;15.82;2.80;;;;;;;8.82;100.00;99937.38;5041973;28;20021;-78
2024/01/25 02:34:06;;;;;;;15.60;2.10;;;;;;;8.71;100.00;99927.72;5073547;28;20103;-79
2024/01/25 02:36:31;;;;;;;15.95;2.30;;;;;;;8.70;100.00;99936.84;5083853;28;20021;-78
2024/01/25 02:38:56;;;;;;;23.23;2.40;;;;;;;8.81;100.00;99949.19;5053448;28;20037;-78
2024/01/25 02:41:22;;;;;;;18.33;2.95;;;;;;;8.78;100.00;99955.75;5061438;28;20069;-79
2024/01/25 02:43:47;;;;;;;19.40;2.90;;;;;;;8.75;100.00;99954.22;5077282;28;20044;-78
2024/01/25 02:46:12;;;;;;;15.82;3.08;;;;;;;8.81;100.00;99960.81;5055445;28;20020;-80
2024/01/25 02:48:37;;;;;;;20.42;2.60;;;;;;;8.79;100.00;99968.22;5053232;28;20024;-79
2024/01/25 02:51:03;;;;;;;19.85;3.00;;;;;;;8.84;100.00;99979.38;5058636;28;20032;-79
2024/01/25 02:53:28;;;;;;;16.95;1.95;;;;;;;8.76;100.00;99957.75;5073582;28;20025;-80
2024/01/25 02:55:53;;;;;;;17.88;2.85;;;;;;;8.81;100.00;99966.22;5062841;28;20037;-79
2024/01/25 02:58:19;;;;;;;17.30;2.60;;;;;;;8.69;100.00;99954.84;5057069;28;20021;-79
2024/01/25 03:00:44;;;;;;;19.52;2.70;;;;;;;8.80;100.00;99978.00;5058553;28;20013;-80
2024/01/25 03:03:09;;;;;;;16.95;2.22;;;;;;;8.52;100.00;99926.16;5060208;28;20046;-78
2024/01/25 03:05:35;;;;;;;16.92;3.40;;;;;;;8.62;100.00;99943.06;5057897;28;20093;-79
2024/01/25 03:08:00;;;;;;;16.38;2.47;;;;;;;8.56;100.00;99935.59;5059369;28;20005;-80
2024/01/25 03:10:26;;;;;;;13.75;2.47;;;;;;;8.60;100.00;99934.28;5062611;28;20040;-78
2024/01/25 03:12:51;;;;;;;15.88;3.92;;;;;;;8.81;100.00;99959.97;5051943;28;20032;-79
2024/01/25 03:15:16;;;;;;;21.60;2.60;;;;;;;8.51;100.00;99928.00;5074180;28;20064;-80
2024/01/25 03:17:43;;;;;;;16.17;2.83;;;;;;;8.75;100.00;99964.16;5061188;28;20021;-79
2024/01/25 03:20:09;;;;;;;18.08;2.72;;;;;;;8.65;100.00;99961.59;5054508;28;20040;-79
2024/01/25 03:22:34;;;;;;;15.68;2.05;;;;;;;8.51;100.00;99933.41;5038924;28;20030;-78
2024/01/25 03:25:00;;;;;;;17.80;2.85;;;;;;;8.45;100.00;99922.41;5063301;28;20048;-78
2024/01/25 03:27:25;;;;;;;19.60;2.88;;;;;;;8.65;100.00;99963.47;5045880;28;20275;-80
2024/01/25 03:29:50;;;;;;;23.08;2.35;;;;;;;8.53;100.00;99960.19;5045536;28;20057;-79
2024/01/25 03:32:16;;;;;;;18.40;3.05;;;;;;;8.61;100.00;99954.00;5046976;28;20067;-78
2024/01/25 03:34:42;;;;;;;16.23;2.28;;;;;;;8.48;100.00;99933.69;5050921;28;20068;-80
2024/01/25 03:37:07;;;;;;;19.35;2.63;;;;;;;8.66;100.00;99973.22;5044462;28;20024;-79
2024/01/25 03:39:33;;;;;;;14.45;1.75;;;;;;;8.54;100.00;99960.03;5045090;28;20029;-79
2024/01/25 03:41:58;;;;;;;17.60;2.20;;;;;;;8.66;100.00;99984.03;5047327;28;20099;-78
2024/01/25 03:44:24;;;;;;;20.83;2.15;;;;;;;8.46;100.00;99948.34;5041584;28;20024;-79
2024/01/25 03:46:49;;;;;;;15.60;2.97;;;;;;;8.67;100.00;99975.78;5044638;28;20028;-79
2024/01/25 03:49:14;;;;;;;16.88;2.60;;;;;;;8.68;100.00;99993.66;5036538;28;20021;-79
2024/01/25 03:51:40;;;;;;;20.40;2.58;;;;;;;8.53;100.00;99966.44;5064406;28;20342;-78
2024/01/25 03:54:05;;;;;;;17.48;2.50;;;;;;;8.67;100.00;99986.56;5048419;28;20025;-78
2024/01/25 03:56:30;;;;;;;24.00;3.08;;;;;;;8.53;100.00;99962.88;5043027;28;20047;-78
2024/01/25 03:58:55;;;;;;;21.33;2.10;;;;;;;8.69;100.00;99998.03;5038508;28;20033;-78
2024/01/25 04:01:21;;;;;;;12.77;2.38;;;;;;;8.43;100.00;99952.22;5031714;28;20107;-79
2024/01/25 04:03:46;;;;;;;15.40;2.20;;;;;;;8.70;100.00;99985.41;5044591;28;20055;-78
2024/01/25 04:06:12;;;;;;;19.23;3.20;;;;;;;8.48;100.00;99960.66;5044254;28;20261;-79
2024/01/25 04:08:37;;;;;;;12.40;1.88;;;;;;;8.69;100.00;99984.53;5044429;28;20017;-81
2024/01/25 04:11:03;;;;;;;24.85;2.88;;;;;;;8.60;100.00;99980.13;5056202;28;20032;-79
2024/01/25 04:13:28;;;;;;;15.10;1.90;;;;;;;8.73;100.00;100003.97;5043602;28;20189;-79
2024/01/25 04:15:53;;;;;;;19.02;3.63;;;;;;;8.40;100.00;99946.31;5058239;28;20070;-80
2024/01/25 04:18:18;;;;;;;17.30;2.47;;;;;;;8.58;100.00;99994.78;5042807;28;20020;-78
2024/01/25 04:20:44;;;;;;;14.93;2.10;;;;;;;8.66;100.00;100016.41;5047745;28;20035;-78
2024/01/25 04:23:09;;;;;;;22.80;2.78;;;;;;;8.46;100.00;99997.75;5040479;28;20025;-78
2024/01/25 04:25:35;;;;;;;25.05;2.72;;;;;;;8.34;100.00;99963.94;5060267;28;20029;-78
2024/01/25 04:28:00;;;;;;;12.45;2.65;;;;;;;8.55;100.00;99993.25;5036918;28;20026;-78
2024/01/25 04:30:26;;;;;;;18.38;2.58;;;;;;;8.62;100.00;100015.88;5036723;28;20022;-78
2024/01/25 04:32:51;;;;;;;18.98;2.03;;;;;;;8.57;100.00;100007.44;5065241;28;20254;-79
2024/01/25 04:35:16;;;;;;;14.32;2.33;;;;;;;8.53;100.00;100006.88;5040651;28;20048;-78
2024/01/25 04:37:41;;;;;;;13.52;1.85;;;;;;;8.58;100.00;100021.75;5044524;28;20216;-78
2024/01/25 04:40:07;;;;;;;21.88;2.45;;;;;;;8.47;100.00;100002.16;5041817;28;20024;-78
2024/01/25 04:42:33;;;;;;;19.65;2.40;;;;;;;8.39;100.00;99991.31;5046699;28;20072;-78
2024/01/25 04:44:58;;;;;;;22.70;2.50;;;;;;;8.46;100.00;100005.00;5040386;28;20020;-77
2024/01/25 04:47:23;;;;;;;16.33;2.22;;;;;;;8.49;100.00;100016.31;5049721;28;20021;-78
2024/01/25 04:49:49;;;;;;;21.98;2.72;;;;;;;8.33;100.00;99978.41;5041583;28;20232;-79
2024/01/25 04:52:14;;;;;;;12.02;1.95;;;;;;;8.49;100.00;100012.78;5059621;28;20034;-81
2024/01/25 04:54:39;;;;;;;15.52;2.03;;;;;;;8.28;100.00;100003.19;5059563;28;20043;-79
2024/01/25 04:57:06;;;;;;;16.88;1.92;;;;;;;8.31;100.00;100015.50;5041690;28;20078;-81
2024/01/25 04:59:35;;;;;;;18.00;2.58;;;;;;;8.04;100.00;99994.91;5037405;28;20024;-81
2024/01/25 05:02:01;;;;;;;;;;;;;;;8.07;100.00;100037.75;5035117;28;20033;-84
2024/01/25 05:04:29;;;;;;;18.90;2.53;;;;;;;7.98;100.00;100038.69;5053920;28;19912;-80
2024/01/25 05:06:54;;;;;;;16.10;2.90;;;;;;;7.64;100.00;100010.59;5056083;28;20041;-84
2024/01/25 05:09:19;;;;;;;17.02;2.35;;;;;;;7.76;100.00;100048.09;5071954;28;20068;-84
2024/01/25 05:11:45;;;;;;;19.45;2.78;;;;;;;7.44;100.00;100009.06;5048656;28;20032;-85
2024/01/25 05:14:10;;;;;;;19.95;2.35;;;;;;;7.54;100.00;100046.69;5045404;28;20020;-81
2024/01/25 05:16:35;;;;;;;21.10;2.60;;;;;;;7.45;100.00;100060.09;5057659;28;20040;-79
2024/01/25 05:19:01;;;;;;;12.10;2.25;;;;;;;7.22;100.00;100053.44;5044631;28;20071;-81
2024/01/25 05:21:26;;;;;;;15.63;3.03;;;;;;;7.30;100.00;100055.38;5057676;28;20021;-81
2024/01/25 05:23:52;;;;;;;22.27;3.00;;;;;;;6.98;100.00;100010.94;5043486;28;20260;-78
2024/01/25 05:26:17;;;;;;;14.30;2.20;;;;;;;7.27;100.00;100074.53;5045892;28;20339;-80
2024/01/25 05:28:43;;;;;;;14.13;1.70;;;;;;;7.27;100.00;100074.53;5058653;28;20032;-80
2024/01/25 05:31:12;;;;;;;20.52;2.50;;;;;;;6.90;100.00;100027.00;5033632;28;20025;-79
2024/01/25 05:33:38;;;;;;;;;;;;;;;7.09;100.00;100088.78;5052277;28;20056;-80
2024/01/25 05:36:04;;;;;;;16.67;2.65;;;;;;;6.95;100.00;100068.59;5047318;22;19958;-53
2024/01/25 05:38:29;;;;;;;15.27;2.92;;;;;;;6.99;100.00;100090.66;5044804;28;20443;-53
2024/01/25 05:40:55;;;;;;;16.30;2.20;;;;;;;6.97;100.00;100090.81;5049811;28;20106;-54
2024/01/25 05:43:20;;;;;;;15.57;2.22;;;;;;;6.99;100.00;100091.50;5047072;28;20063;-54
2024/01/25 05:45:46;;;;;;;21.13;2.20;;;;;;;7.08;100.00;100094.31;5049897;28;20087;-54
2024/01/25 05:48:12;;;;;;;14.18;2.97;;;;;;;7.12;100.00;100093.84;5045977;28;20365;-54
2024/01/25 05:50:38;;;;;;;12.07;1.77;;;;;;;7.18;100.00;100093.28;5047714;28;20021;-54
2024/01/25 05:53:03;;;;;;;25.90;3.20;;;;;;;7.24;100.00;100097.19;5032298;28;20436;-54
2024/01/25 05:55:29;;;;;;;20.98;2.20;;;;;;;7.35;100.00;100093.47;5042254;28;20029;-54
2024/01/25 05:57:54;;;;;;;24.30;2.67;;;;;;;7.40;100.00;100091.16;5049957;28;20043;-54
2024/01/25 06:00:20;;;;;;;17.05;2.85;;;;;;;7.49;100.00;100092.94;5048460;28;20032;-54
2024/01/25 06:02:46;;;;;;;16.30;2.25;;;;;;;7.49;100.00;100094.78;5045386;28;20021;-54
2024/01/25 06:05:12;;;;;;;21.85;2.65;;;;;;;7.50;100.00;100093.81;5045541;28;21082;-53
2024/01/25 06:07:37;;;;;;;20.10;2.60;;;;;;;7.50;100.00;100094.63;5048348;28;20053;-53
2024/01/25 06:10:03;;;;;;;19.88;3.08;;;;;;;7.55;100.00;100103.13;5027856;28;20091;-53
2024/01/25 06:12:29;;;;;;;20.30;3.47;;;;;;;7.49;100.00;100102.84;5043472;28;20373;-53
2024/01/25 06:14:54;;;;;;;23.88;2.50;;;;;;;7.45;100.00;100097.78;5044480;28;20049;-53
2024/01/25 06:17:20;;;;;;;20.52;2.55;;;;;;;7.21;100.00;100078.66;5045904;28;20044;-53
2024/01/25 06:19:45;;;;;;;16.67;2.45;;;;;;;7.28;100.00;100103.97;5039224;28;20028;-53
2024/01/25 06:22:12;;;;;;;17.08;2.25;;;;;;;7.20;100.00;100102.06;5047174;28;20021;-53
2024/01/25 06:24:38;;;;;;;12.35;2.30;;;;;;;7.11;100.00;100100.25;5044544;28;20142;-53
2024/01/25 06:27:04;;;;;;;20.10;2.35;;;;;;;7.06;100.00;100102.53;5046285;28;20059;-53
2024/01/25 06:29:29;;;;;;;22.83;3.53;;;;;;;7.00;100.00;100109.34;5048210;28;20021;-54
2024/01/25 06:31:55;;;;;;;23.13;2.88;;;;;;;6.98;100.00;100123.94;5051350;28;20064;-54
2024/01/25 06:34:20;;;;;;;16.67;2.30;;;;;;;6.97;100.00;100123.13;5046643;28;20116;-54
2024/01/25 06:36:46;;;;;;;14.68;2.33;;;;;;;7.00;100.00;100130.03;5053852;28;20383;-54
2024/01/25 06:39:12;;;;;;;11.40;2.22;;;;;;;7.05;100.00;100129.56;5052177;28;20029;-54
2024/01/25 06:41:37;;;;;;;16.20;2.30;;;;;;;7.08;100.00;100132.84;5036887;28;20082;-54
2024/01/25 06:44:03;;;;;;;23.08;4.28;;;;;;;7.12;100.00;100136.91;5045506;28;20036;-53
2024/01/25 06:46:28;;;;;;;23.00;3.13;;;;;;;7.16;100.00;100146.41;5047168;28;20056;-53
2024/01/25 06:48:54;;;;;;;29.15;3.47;;;;;;;7.13;100.00;100140.47;5045038;28;20296;-53
2024/01/25 06:51:19;;;;;;;20.52;3.33;;;;;;;7.22;100.00;100155.72;5044071;28;20048;-53
2024/01/25 06:53:45;;;;;;;18.48;2.72;;;;;;;7.20;100.00;100147.81;5043727;28;20029;-54
2024/01/25 06:56:10;;;;;;;21.20;3.47;;;;;;;7.27;100.00;100156.13;5047919;28;20119;-54
2024/01/25 06:58:36;;;;;;;31.20;3.42;;;;;;;7.24;100.00;100149.19;5049635;28;20083;-54
2024/01/25 07:01:02;;;;;;;10.60;2.40;;;;;;;7.31;100.00;100144.06;5045614;28;20045;-59
2024/01/25 07:03:27;;;;;;;17.55;2.70;;;;;;;7.19;100.00;100143.41;5046760;28;20036;-59
2024/01/25 07:05:53;;;;;;;23.33;3.10;;;;;;;7.19;100.00;100143.41;5045963;28;20040;-59
2024/01/25 07:08:18;;;;;;;14.98;2.33;;;;;;;7.06;100.00;100142.91;5048860;28;20133;-59
2024/01/25 07:10:44;;;;;;;17.40;2.42;;;;;;;7.00;100.00;100143.50;5052574;28;20024;-59
2024/01/25 07:13:10;;;;;;;11.93;1.95;;;;;;;6.85;100.00;100150.34;5055122;28;20334;-59
2024/01/25 07:20:40;;;;;;;18.90;2.22;;;;;;;6.56;100.00;100154.78;5030645;28;20058;-59
2024/01/25 07:23:05;;;;;;;22.58;2.25;;;;;;;6.52;100.00;100153.41;5031295;28;20511;-59
2024/01/25 07:25:31;;;;;;;20.25;2.40;;;;;;;6.61;100.00;100166.97;5027513;28;20037;-59
2024/01/25 07:27:56;;;;;;;18.60;4.18;;;;;;;6.66;100.00;100176.28;5025056;28;20034;-59
2024/01/25 07:30:21;;;;;;;22.10;4.18;;;;;;;6.70;100.00;100168.78;5027822;28;20018;-59
2024/01/25 07:32:47;;;;;;;29.88;5.78;;;;;;;6.76;100.00;100168.22;5028124;28;20116;-61
2024/01/25 07:35:13;;;;;;;31.27;5.60;;;;;;;6.84;100.00;100156.69;5025123;28;20029;-60
2024/01/25 07:37:40;;;;;;;18.27;3.55;;;;;;;7.04;100.00;100169.09;5022216;28;20086;-53
2024/01/25 07:40:06;;;;;;;11.27;2.90;;;;;;;7.25;100.00;100150.88;5019766;28;20136;-53
2024/01/25 07:42:32;;;;;;;19.00;3.00;;;;;;;7.45;100.00;100157.03;5023166;28;20404;-53
2024/01/25 07:44:58;;;;;;;28.75;4.07;;;;;;;7.58;100.00;100151.28;5025207;28;20029;-53
2024/01/25 07:47:23;;;;;;;17.60;2.90;;;;;;;7.60;100.00;100154.69;5025385;28;20037;-53
2024/01/25 07:49:49;;;;;;;16.60;2.55;;;;;;;7.72;100.00;100149.91;5030383;28;20052;-53
2024/01/25 07:52:14;;;;;;;18.77;2.85;;;;;;;7.64;100.00;100145.28;5029377;28;20171;-53
2024/01/25 07:54:40;;;;;;;15.23;2.97;;;;;;;7.65;100.00;100156.91;5030053;28;20445;-53
2024/01/25 07:57:05;;;;;;;19.98;3.22;;;;;;;7.69;100.00;100155.59;5026033;28;20018;-53
2024/01/25 07:59:31;;;;;;;17.10;3.40;;;;;;;7.79;100.00;100152.84;5026954;28;20032;-53
2024/01/25 08:01:56;;;;;;;22.80;2.90;;;;;;;7.82;100.00;100160.63;5026581;28;20445;-53
2024/01/25 08:04:21;;;;;;;20.15;3.25;;;;;;;7.86;100.00;100154.78;5026199;28;20112;-53
2024/01/25 08:06:47;;;;;;;21.85;3.75;;;;;;;7.83;100.00;100162.31;5025432;28;20389;-53
2024/01/25 08:09:12;;;;;;;14.90;2.88;;;;;;;7.72;100.00;100139.13;5017074;28;20127;-53
2024/01/25 08:11:38;;;;;;;26.08;4.75;;;;;;;7.79;100.00;100160.94;5028572;28;20037;-53
2024/01/25 08:14:03;;;;;;;26.52;6.22;;;;;;;7.83;100.00;100171.28;5022895;28;20392;-53
2024/01/25 08:16:29;;;;;;;26.50;4.85;;;;;;;7.88;100.00;100168.09;5020762;28;20825;-53
2024/01/25 08:18:55;;;;;;;18.10;4.85;;;;;;;8.02;100.00;100151.41;5033731;28;20033;-53
2024/01/25 08:21:21;;;;;;;15.82;4.18;;;;;;;8.23;100.00;100150.25;5048730;28;20021;-54
2024/01/25 08:23:47;;;;;;;22.02;3.90;;;;;;;8.34;100.00;100163.50;5040762;28;20036;-53
2024/01/25 08:26:13;;;;;;;17.80;4.03;;;;;;;8.49;100.00;100161.13;5048857;28;20025;-53
2024/01/25 08:28:44;;;;;;;21.02;3.78;;;;;;;8.50;100.00;100162.81;5043487;28;20026;-53
2024/01/25 08:31:10;;;;;;;24.90;4.22;;;;;;;8.65;100.00;100168.50;5044887;28;20081;-53
2024/01/25 08:33:35;;;;;;;27.88;4.50;;;;;;;8.73;100.00;100168.56;5047418;28;20392;-53
2024/01/25 08:36:01;;;;;;;17.10;4.05;;;;;;;9.02;100.00;100153.88;5048925;28;20053;-53
2024/01/25 08:38:27;;;;;;;15.70;3.15;;;;;;;9.74;100.00;100167.84;5042127;28;20044;-53
2024/01/25 08:40:52;;;;;;;25.27;2.97;;;;;;;11.22;100.00;100153.34;5044425;28;20052;-53
2024/01/25 08:43:18;;;;;;;22.05;3.03;;;;;;;12.88;100.00;100144.78;5044797;28;20028;-52
2024/01/25 08:48:23;;;;;;;;;;;;;;;15.15;100.00;100148.16;5013066;28;20053;-54
2024/01/25 08:50:53;;;;;;;19.08;2.95;;;;;;;15.39;100.00;100155.00;5026431;28;19921;-54
2024/01/25 08:53:18;;;;;;;;;;;;;;;16.04;100.00;100161.81;5012160;28;20037;-54
2024/01/25 08:55:44;;;;;;;19.05;3.30;;;;;;;15.84;100.00;100169.91;5006581;28;20323;-54
2024/01/25 08:58:09;;;;;;;16.50;3.28;;;;;;;14.20;100.00;100166.59;5057840;22;20072;-60
2024/01/25 09:00:34;;;;;;;15.88;3.13;;;;;;;14.08;100.00;100184.47;5143325;22;20044;-76
2024/01/25 09:03:00;;;;;;;16.08;3.28;;;;;;;14.81;100.00;100168.88;5095906;28;20082;-76
2024/01/25 09:05:28;;;;;;;14.63;3.47;;;;;;;16.70;100.00;100163.78;5081486;28;20070;-82
2024/01/25 09:07:53;;;;;;;15.07;2.40;;;;;;;17.84;90.07;100180.84;5077356;28;20021;-76
2024/01/25 09:10:19;;;;;;;20.35;3.45;;;;;;;18.51;81.47;100163.00;5062719;28;20043;-75
2024/01/25 09:12:45;;;;;;;12.65;2.90;;;;;;;19.24;78.40;100164.28;5085266;28;20028;-76
2024/01/25 09:15:10;;;;;;;10.77;2.63;;;;;;;19.91;74.58;100170.72;5082065;28;20051;-74
2024/01/25 09:17:36;;;;;;;11.45;2.97;;;;;;;20.57;69.04;100166.22;5082812;28;20029;-81
2024/01/25 09:20:08;;;;;;;14.05;2.75;;;;;;;20.90;66.76;100158.47;5056540;28;20016;-75
2024/01/25 09:22:34;;;;;;;15.60;3.28;;;;;;;20.45;67.44;100159.81;5061363;28;20032;-75
2024/01/25 09:24:59;;;;;;;15.80;3.28;;;;;;;21.40;65.22;100171.78;5061270;28;20227;-76
2024/01/25 09:27:24;;;;;;;15.70;2.72;;;;;;;21.50;63.58;100182.19;5061864;28;20028;-70
2024/01/25 09:29:49;;;;;;;18.65;3.25;;;;;;;22.40;61.31;100187.09;5079212;28;20237;-70
2024/01/25 09:32:15;;;;;;;14.30;2.97;;;;;;;21.77;61.12;100190.75;5078440;28;20020;-70
2024/01/25 09:34:40;;;;;;;18.05;3.30;;;;;;;22.35;58.93;100189.78;5077692;28;20021;-70
2024/01/25 09:37:05;;;;;;;15.57;3.20;;;;;;;22.21;58.14;100196.66;5076210;28;20047;-78
2024/01/25 09:39:35;;;;;;;11.60;2.47;;;;;;;22.66;56.29;100204.97;5060829;28;20339;-77
2024/01/25 09:42:01;;;;;;;15.90;2.90;;;;;;;22.22;58.62;100207.44;5076587;28;20024;-77
2024/01/25 09:44:28;;;;;;;16.27;2.85;;;;;;;22.56;56.64;100206.66;5064685;28;20037;-76
2024/01/25 09:46:53;;;;;;;18.05;3.85;;;;;;;22.97;56.96;100200.81;5084880;28;20082;-77
2024/01/25 09:49:18;;;;;;;13.10;3.33;;;;;;;23.40;55.82;100193.75;5081289;28;20358;-77
2024/01/25 09:51:45;;;;;;;11.93;3.13;;;;;;;24.78;53.31;100200.09;5080866;28;20027;-77
2024/01/25 09:54:10;;;;;;;14.95;3.00;;;;;;;22.93;53.54;100196.03;5056711;28;20349;-77
2024/01/25 09:56:36;;;;;;;15.65;3.35;;;;;;;20.79;58.12;100199.47;5063706;28;20062;-79
2024/01/25 09:59:04;;;;;;;14.20;3.05;;;;;;;18.54;63.40;100200.91;5058812;28;20062;-79
2024/01/25 10:01:29;;;;;;;15.07;3.10;;;;;;;17.12;69.63;100191.75;5061689;28;20032;-77
2024/01/25 10:03:58;;;;;;;16.83;3.03;;;;;;;16.29;72.52;100205.75;5073291;28;20189;-78
2024/01/25 10:06:23;;;;;;;12.67;2.70;;;;;;;15.44;86.12;100205.16;5060357;28;20172;-76
2024/01/25 10:08:49;;;;;;;15.30;3.10;;;;;;;14.69;100.00;100210.25;5086011;28;20261;-76
2024/01/25 10:11:15;;;;;;;11.82;2.78;;;;;;;14.60;100.00;100216.88;5067201;28;20024;-80
2024/01/25 10:13:50;;;;;;;19.42;2.90;;;;;;;14.05;100.00;100215.63;5090781;28;20031;-73
2024/01/25 10:16:17;;;;;;;22.27;3.33;;;;;;;13.67;100.00;100218.50;5059142;28;20088;-77
2024/01/25 10:18:44;;;;;;;19.30;2.88;;;;;;;13.45;100.00;100219.47;5088049;28;20035;-77
2024/01/25 10:21:10;;;;;;;20.40;2.90;;;;;;;12.99;100.00;100178.78;5082095;28;20016;-76
2024/01/25 10:23:36;;;;;;;19.15;2.85;;;;;;;12.48;100.00;100196.56;5061473;28;20027;-77
2024/01/25 10:26:02;;;;;;;18.40;2.95;;;;;;;12.15;100.00;100187.78;5063395;28;20020;-80
2024/01/25 10:28:28;;;;;;;18.15;3.13;;;;;;;11.94;100.00;100193.84;5063375;28;20330;-80
2024/01/25 10:30:57;;;;;;;16.95;2.72;;;;;;;12.02;100.00;100206.53;5064174;28;20024;-73
2024/01/25 10:33:24;;;;;;;19.38;2.95;;;;;;;12.03;100.00;100219.09;5062367;28;20021;-72
2024/01/25 10:35:51;;;;;;;18.92;3.13;;;;;;;12.12;100.00;100209.03;5063350;28;20224;-72
2024/01/25 10:38:20;;;;;;;20.33;3.10;;;;;;;12.41;100.00;100197.47;5081738;28;20024;-71
2024/01/25 10:40:46;;;;;;;22.77;2.80;;;;;;;12.84;100.00;100208.66;5079411;28;20027;-72
2024/01/25 10:43:12;;;;;;;22.63;3.53;;;;;;;12.73;100.00;100193.63;5059401;28;20052;-72
2024/01/25 10:45:37;;;;;;;20.45;2.75;;;;;;;13.16;100.00;100188.47;5060245;28;20158;-72
2024/01/25 10:48:03;;;;;;;20.60;3.63;;;;;;;13.82;100.00;100186.69;5057701;28;20042;-71
2024/01/25 10:50:28;;;;;;;19.23;2.13;;;;;;;14.47;100.00;100178.59;5056237;28;20187;-72
2024/01/25 10:52:54;;;;;;;22.13;3.17;;;;;;;14.57;100.00;100170.97;5056957;28;20146;-71
2024/01/25 10:55:20;;;;;;;10.30;2.08;;;;;;;14.19;100.00;100160.31;5062163;28;20024;-71
2024/01/25 10:57:47;;;;;;;17.35;2.83;;;;;;;16.49;100.00;100132.03;5057627;28;20216;-72
2024/01/25 11:00:17;;;;;;;19.73;3.35;;;;;;;17.78;88.54;100160.63;5064102;28;20020;-71
2024/01/25 11:02:44;;;;;;;19.40;3.20;;;;;;;16.82;85.75;100139.41;5072078;28;20043;-68
2024/01/25 11:05:14;;;;;;;16.58;2.60;;;;;;;15.55;88.04;100166.41;5078091;28;20320;-68
2024/01/25 11:07:50;;;;;;;13.13;2.90;;;;;;;14.45;95.66;100158.88;5079162;28;20025;-68
2024/01/25 11:10:20;;;;;;;13.05;2.58;;;;;;;14.13;100.00;100161.09;5083067;28;20052;-68
2024/01/25 11:12:49;;;;;;;21.05;2.55;;;;;;;16.42;100.00;100150.31;5089695;28;20376;-68
2024/01/25 11:15:20;;;;;;;14.70;2.50;;;;;;;19.22;81.48;100122.50;5082802;28;20310;-68
2024/01/25 11:17:55;;;;;;;15.10;2.50;;;;;;;19.95;71.44;100142.78;5083900;28;20024;-69
2024/01/25 11:20:25;;;;;;;12.93;2.65;;;;;;;20.20;67.29;100131.63;5081170;28;20050;-68
2024/01/25 11:23:04;;;;;;;12.95;2.30;;;;;;;18.62;69.65;100151.28;5092340;28;20024;-69